sensor_id;sensor_type;location;lat;lon;timestamp;temperature;humidity
4368;DHT22;43455;49.740;10.154;2022-07-29T12:12:55;26.40;12.50
4368;DHT22;43455;49.740;10.154;2022-07-29T13:36:38;28.70;12.60
4368;DHT22;43455;49.740;10.154;2022-07-29T13:39:04;29.00;13.10
4368;DHT22;43455;49.740;10.154;2022-07-29T13:41:33;29.00;13.10
4368;DHT22;43455;49.740;10.154;2022-07-29T13:43:58;29.00;13.10
4368;DHT22;43455;49.740;10.154;2022-07-29T13:46:24;28.90;12.60
4368;DHT22;43455;49.740;10.154;2022-07-29T13:48:50;28.80;12.70
4368;DHT22;43455;49.740;10.154;2022-07-29T13:51:16;28.80;12.90
4368;DHT22;43455;49.740;10.154;2022-07-29T13:53:41;28.70;12.80
4368;DHT22;43455;49.740;10.154;2022-07-29T13:56:07;28.60;13.10
4368;DHT22;43455;49.740;10.154;2022-07-29T13:58:33;28.60;13.20
4368;DHT22;43455;49.740;10.154;2022-07-29T14:00:59;28.50;13.30
4368;DHT22;43455;49.740;10.154;2022-07-29T14:03:26;28.50;13.40
4368;DHT22;43455;49.740;10.154;2022-07-29T14:05:52;28.50;13.30
4368;DHT22;43455;49.740;10.154;2022-07-29T14:08:18;28.40;14.40
4368;DHT22;43455;49.740;10.154;2022-07-29T14:10:44;28.30;16.10
4368;DHT22;43455;49.740;10.154;2022-07-29T14:13:10;28.20;17.40
4368;DHT22;43455;49.740;10.154;2022-07-29T14:15:36;28.10;17.30
4368;DHT22;43455;49.740;10.154;2022-07-29T14:18:02;27.90;17.90
4368;DHT22;43455;49.740;10.154;2022-07-29T14:20:28;27.80;18.80
4368;DHT22;43455;49.740;10.154;2022-07-29T14:22:55;27.50;20.30
4368;DHT22;43455;49.740;10.154;2022-07-29T14:25:22;27.50;21.40
4368;DHT22;43455;49.740;10.154;2022-07-29T14:27:48;27.40;21.80
4368;DHT22;43455;49.740;10.154;2022-07-29T14:30:14;27.40;22.70
4368;DHT22;43455;49.740;10.154;2022-07-29T14:32:43;27.40;22.90
4368;DHT22;43455;49.740;10.154;2022-07-29T14:40:12;27.40;22.60
4368;DHT22;43455;49.740;10.154;2022-07-29T14:42:38;27.40;22.90
4368;DHT22;43455;49.740;10.154;2022-07-29T14:45:05;27.40;23.20
4368;DHT22;43455;49.740;10.154;2022-07-29T14:47:31;27.40;23.40
4368;DHT22;43455;49.740;10.154;2022-07-29T14:49:58;27.20;23.80
4368;DHT22;43455;49.740;10.154;2022-07-29T14:52:23;27.00;24.80
4368;DHT22;43455;49.740;10.154;2022-07-29T14:54:49;26.70;24.10
4368;DHT22;43455;49.740;10.154;2022-07-29T14:57:15;26.50;24.10
4368;DHT22;43455;49.740;10.154;2022-07-29T14:59:41;26.50;24.60
4368;DHT22;43455;49.740;10.154;2022-07-29T15:02:07;26.50;24.30
4368;DHT22;43455;49.740;10.154;2022-07-29T15:04:33;26.50;23.20
4368;DHT22;43455;49.740;10.154;2022-07-29T15:06:59;26.50;23.30
4368;DHT22;43455;49.740;10.154;2022-07-29T15:09:25;26.50;23.30
4368;DHT22;43455;49.740;10.154;2022-07-29T15:11:51;26.50;24.80
4368;DHT22;43455;49.740;10.154;2022-07-29T15:14:17;26.50;25.00
4368;DHT22;43455;49.740;10.154;2022-07-29T15:16:42;26.30;26.00
4368;DHT22;43455;49.740;10.154;2022-07-29T15:19:08;26.20;26.20
4368;DHT22;43455;49.740;10.154;2022-07-29T15:21:34;26.20;26.80
4368;DHT22;43455;49.740;10.154;2022-07-29T15:24:00;26.10;26.90
4368;DHT22;43455;49.740;10.154;2022-07-29T15:26:26;26.10;26.90
4368;DHT22;43455;49.740;10.154;2022-07-29T15:28:52;26.00;26.50
4368;DHT22;43455;49.740;10.154;2022-07-29T15:31:18;26.00;26.20
4368;DHT22;43455;49.740;10.154;2022-07-29T15:33:44;25.80;26.80
4368;DHT22;43455;49.740;10.154;2022-07-29T15:36:10;25.80;27.70
4368;DHT22;43455;49.740;10.154;2022-07-29T15:38:38;25.80;28.20
4368;DHT22;43455;49.740;10.154;2022-07-29T15:41:08;25.80;28.70
4368;DHT22;43455;49.740;10.154;2022-07-29T15:43:34;25.60;29.20
4368;DHT22;43455;49.740;10.154;2022-07-29T15:46:01;25.60;30.10
4368;DHT22;43455;49.740;10.154;2022-07-29T15:48:52;25.30;30.40
4368;DHT22;43455;49.740;10.154;2022-07-29T15:51:18;25.30;31.10
4368;DHT22;43455;49.740;10.154;2022-07-29T15:53:43;25.30;31.40
4368;DHT22;43455;49.740;10.154;2022-07-29T15:56:09;25.30;31.90
4368;DHT22;43455;49.740;10.154;2022-07-29T15:58:35;25.40;31.70
4368;DHT22;43455;49.740;10.154;2022-07-29T16:01:01;25.40;30.80
4368;DHT22;43455;49.740;10.154;2022-07-29T16:03:26;25.40;31.40
4368;DHT22;43455;49.740;10.154;2022-07-29T16:05:52;25.30;30.60
4368;DHT22;43455;49.740;10.154;2022-07-29T16:08:18;25.20;30.00
4368;DHT22;43455;49.740;10.154;2022-07-29T16:10:43;25.10;30.50
4368;DHT22;43455;49.740;10.154;2022-07-29T16:13:10;25.10;30.40
4368;DHT22;43455;49.740;10.154;2022-07-29T16:15:38;25.10;30.60
4368;DHT22;43455;49.740;10.154;2022-07-29T16:18:04;25.10;30.80
4368;DHT22;43455;49.740;10.154;2022-07-29T16:20:30;25.10;31.10
4368;DHT22;43455;49.740;10.154;2022-07-29T16:22:56;25.00;31.40
4368;DHT22;43455;49.740;10.154;2022-07-29T16:25:21;25.00;31.20
4368;DHT22;43455;49.740;10.154;2022-07-29T16:27:47;25.00;31.60
4368;DHT22;43455;49.740;10.154;2022-07-29T16:30:13;25.00;31.40
4368;DHT22;43455;49.740;10.154;2022-07-29T16:32:39;24.90;32.00
4368;DHT22;43455;49.740;10.154;2022-07-29T16:35:06;24.80;32.30
4368;DHT22;43455;49.740;10.154;2022-07-29T16:37:31;24.70;32.90
4368;DHT22;43455;49.740;10.154;2022-07-29T16:40:05;24.70;32.90
4368;DHT22;43455;49.740;10.154;2022-07-29T16:42:32;24.80;32.50
4368;DHT22;43455;49.740;10.154;2022-07-29T16:44:58;24.90;32.10
4368;DHT22;43455;49.740;10.154;2022-07-29T16:47:24;24.90;31.70
4368;DHT22;43455;49.740;10.154;2022-07-29T16:49:50;24.80;31.40
4368;DHT22;43455;49.740;10.154;2022-07-29T16:52:18;24.80;31.50
4368;DHT22;43455;49.740;10.154;2022-07-29T16:54:44;24.70;32.10
4368;DHT22;43455;49.740;10.154;2022-07-29T16:57:10;24.80;32.20
4368;DHT22;43455;49.740;10.154;2022-07-29T16:59:37;24.80;31.90
4368;DHT22;43455;49.740;10.154;2022-07-29T17:02:03;25.00;31.50
4368;DHT22;43455;49.740;10.154;2022-07-29T17:04:29;24.90;31.20
4368;DHT22;43455;49.740;10.154;2022-07-29T17:06:56;24.90;31.20
4368;DHT22;43455;49.740;10.154;2022-07-29T17:09:22;24.90;30.90
4368;DHT22;43455;49.740;10.154;2022-07-29T17:11:51;24.90;31.10
4368;DHT22;43455;49.740;10.154;2022-07-29T17:14:18;24.70;30.80
4368;DHT22;43455;49.740;10.154;2022-07-29T17:16:44;24.70;30.90
4368;DHT22;43455;49.740;10.154;2022-07-29T17:19:10;24.70;31.10
4368;DHT22;43455;49.740;10.154;2022-07-29T17:21:36;24.70;30.60
4368;DHT22;43455;49.740;10.154;2022-07-29T17:24:02;24.70;30.60
4368;DHT22;43455;49.740;10.154;2022-07-29T17:26:28;24.70;30.70
4368;DHT22;43455;49.740;10.154;2022-07-29T17:28:54;24.70;30.70
4368;DHT22;43455;49.740;10.154;2022-07-29T17:31:20;24.70;30.80
4368;DHT22;43455;49.740;10.154;2022-07-29T17:33:46;24.70;30.80
4368;DHT22;43455;49.740;10.154;2022-07-29T17:36:12;24.70;31.10
4368;DHT22;43455;49.740;10.154;2022-07-29T17:39:00;24.70;32.80
4368;DHT22;43455;49.740;10.154;2022-07-29T17:41:27;24.40;33.00
4368;DHT22;43455;49.740;10.154;2022-07-29T17:43:56;24.20;34.30
4368;DHT22;43455;49.740;10.154;2022-07-29T17:46:23;24.10;34.40
4368;DHT22;43455;49.740;10.154;2022-07-29T17:49:01;24.10;34.50
4368;DHT22;43455;49.740;10.154;2022-07-29T17:51:26;24.20;35.60
4368;DHT22;43455;49.740;10.154;2022-07-29T17:53:53;24.40;34.30
4368;DHT22;43455;49.740;10.154;2022-07-29T17:56:20;24.30;34.90
4368;DHT22;43455;49.740;10.154;2022-07-29T18:01:21;24.30;34.30
4368;DHT22;43455;49.740;10.154;2022-07-29T18:03:48;24.20;34.10
4368;DHT22;43455;49.740;10.154;2022-07-29T18:06:14;24.30;34.00
4368;DHT22;43455;49.740;10.154;2022-07-29T18:11:13;24.30;33.60
4368;DHT22;43455;49.740;10.154;2022-07-29T18:16:17;24.30;32.90
4368;DHT22;43455;49.740;10.154;2022-07-29T18:18:44;24.30;33.10
4368;DHT22;43455;49.740;10.154;2022-07-29T18:21:10;24.30;33.10
4368;DHT22;43455;49.740;10.154;2022-07-29T18:23:37;24.20;34.30
4368;DHT22;43455;49.740;10.154;2022-07-29T18:26:03;24.20;33.90
4368;DHT22;43455;49.740;10.154;2022-07-29T18:28:29;24.10;33.70
4368;DHT22;43455;49.740;10.154;2022-07-29T18:30:56;24.20;33.60
4368;DHT22;43455;49.740;10.154;2022-07-29T18:33:22;24.20;33.40
4368;DHT22;43455;49.740;10.154;2022-07-29T18:35:49;24.20;33.70
4368;DHT22;43455;49.740;10.154;2022-07-29T18:38:16;24.20;34.00
4368;DHT22;43455;49.740;10.154;2022-07-29T18:40:42;24.20;35.20
4368;DHT22;43455;49.740;10.154;2022-07-29T18:43:10;24.20;35.60
4368;DHT22;43455;49.740;10.154;2022-07-29T18:45:37;24.20;36.00
4368;DHT22;43455;49.740;10.154;2022-07-29T18:48:04;24.20;36.00
4368;DHT22;43455;49.740;10.154;2022-07-29T18:50:30;24.10;36.50
4368;DHT22;43455;49.740;10.154;2022-07-29T18:52:57;24.00;36.50
4368;DHT22;43455;49.740;10.154;2022-07-29T18:55:23;24.00;37.30
4368;DHT22;43455;49.740;10.154;2022-07-29T18:57:49;23.90;37.10
4368;DHT22;43455;49.740;10.154;2022-07-29T19:00:15;23.70;37.40
4368;DHT22;43455;49.740;10.154;2022-07-29T19:02:40;23.60;37.50
4368;DHT22;43455;49.740;10.154;2022-07-29T19:05:08;23.60;37.20
4368;DHT22;43455;49.740;10.154;2022-07-29T19:07:35;23.70;37.00
4368;DHT22;43455;49.740;10.154;2022-07-29T19:10:01;23.80;36.60
4368;DHT22;43455;49.740;10.154;2022-07-29T19:12:27;23.70;36.50
4368;DHT22;43455;49.740;10.154;2022-07-29T19:14:53;23.70;36.70
4368;DHT22;43455;49.740;10.154;2022-07-29T19:17:19;23.60;36.60
4368;DHT22;43455;49.740;10.154;2022-07-29T19:19:44;23.70;36.40
4368;DHT22;43455;49.740;10.154;2022-07-29T19:22:10;23.70;36.50
4368;DHT22;43455;49.740;10.154;2022-07-29T19:24:38;23.60;36.70
4368;DHT22;43455;49.740;10.154;2022-07-29T19:27:03;23.60;36.60
4368;DHT22;43455;49.740;10.154;2022-07-29T19:29:29;23.60;36.60
4368;DHT22;43455;49.740;10.154;2022-07-29T19:31:57;23.70;36.50
4368;DHT22;43455;49.740;10.154;2022-07-29T19:34:26;23.70;36.70
4368;DHT22;43455;49.740;10.154;2022-07-29T19:36:52;23.60;36.50
4368;DHT22;43455;49.740;10.154;2022-07-29T19:39:18;23.70;36.50
4368;DHT22;43455;49.740;10.154;2022-07-29T19:41:44;23.60;36.80
4368;DHT22;43455;49.740;10.154;2022-07-29T19:44:09;23.60;36.60
4368;DHT22;43455;49.740;10.154;2022-07-29T19:46:38;23.50;36.60
4368;DHT22;43455;49.740;10.154;2022-07-29T19:49:04;23.50;36.60
4368;DHT22;43455;49.740;10.154;2022-07-29T19:51:31;23.40;37.20
4368;DHT22;43455;49.740;10.154;2022-07-29T19:53:57;23.40;36.60
4368;DHT22;43455;49.740;10.154;2022-07-29T19:56:23;23.40;36.60
4368;DHT22;43455;49.740;10.154;2022-07-29T19:58:52;23.60;36.60
4368;DHT22;43455;49.740;10.154;2022-07-29T20:01:18;23.50;36.40
4368;DHT22;43455;49.740;10.154;2022-07-29T20:03:44;23.50;36.60
4368;DHT22;43455;49.740;10.154;2022-07-29T20:06:11;23.50;36.40
4368;DHT22;43455;49.740;10.154;2022-07-29T20:08:38;23.50;36.30
4368;DHT22;43455;49.740;10.154;2022-07-29T20:11:05;23.50;36.50
4368;DHT22;43455;49.740;10.154;2022-07-29T20:13:31;23.50;36.70
4368;DHT22;43455;49.740;10.154;2022-07-29T20:16:01;23.50;36.80
4368;DHT22;43455;49.740;10.154;2022-07-29T20:18:33;23.40;37.20
4368;DHT22;43455;49.740;10.154;2022-07-29T20:21:03;23.50;37.50
4368;DHT22;43455;49.740;10.154;2022-07-29T20:23:29;23.40;38.20
4368;DHT22;43455;49.740;10.154;2022-07-29T20:25:55;23.40;38.60
4368;DHT22;43455;49.740;10.154;2022-07-29T20:28:21;23.40;39.10
4368;DHT22;43455;49.740;10.154;2022-07-29T20:30:46;23.40;39.10
4368;DHT22;43455;49.740;10.154;2022-07-29T20:33:12;23.40;40.10
4368;DHT22;43455;49.740;10.154;2022-07-29T20:35:38;23.30;39.80
4368;DHT22;43455;49.740;10.154;2022-07-29T20:38:05;23.20;40.00
4368;DHT22;43455;49.740;10.154;2022-07-29T20:40:31;23.30;39.80
4368;DHT22;43455;49.740;10.154;2022-07-29T20:42:57;23.20;39.70
4368;DHT22;43455;49.740;10.154;2022-07-29T20:45:23;23.10;40.70
4368;DHT22;43455;49.740;10.154;2022-07-29T20:47:50;23.00;40.50
4368;DHT22;43455;49.740;10.154;2022-07-29T20:50:16;22.90;41.20
4368;DHT22;43455;49.740;10.154;2022-07-29T20:52:42;22.90;41.40
4368;DHT22;43455;49.740;10.154;2022-07-29T20:55:09;23.00;39.90
4368;DHT22;43455;49.740;10.154;2022-07-29T20:57:35;23.00;39.50
4368;DHT22;43455;49.740;10.154;2022-07-29T21:00:01;22.90;39.00
4368;DHT22;43455;49.740;10.154;2022-07-29T21:02:26;22.80;38.50
4368;DHT22;43455;49.740;10.154;2022-07-29T21:04:52;22.80;38.30
4368;DHT22;43455;49.740;10.154;2022-07-29T21:07:18;22.80;37.90
4368;DHT22;43455;49.740;10.154;2022-07-29T21:09:44;22.90;37.30
4368;DHT22;43455;49.740;10.154;2022-07-29T21:12:09;22.90;37.40
4368;DHT22;43455;49.740;10.154;2022-07-29T21:14:36;22.80;37.50
4368;DHT22;43455;49.740;10.154;2022-07-29T21:17:05;22.80;37.30
4368;DHT22;43455;49.740;10.154;2022-07-29T21:19:32;22.90;37.10
4368;DHT22;43455;49.740;10.154;2022-07-29T21:21:59;22.90;36.90
4368;DHT22;43455;49.740;10.154;2022-07-29T21:24:25;22.80;36.80
4368;DHT22;43455;49.740;10.154;2022-07-29T21:26:51;22.70;37.20
4368;DHT22;43455;49.740;10.154;2022-07-29T21:29:17;22.70;37.60
4368;DHT22;43455;49.740;10.154;2022-07-29T21:31:43;22.60;37.90
4368;DHT22;43455;49.740;10.154;2022-07-29T21:34:08;22.60;37.70
4368;DHT22;43455;49.740;10.154;2022-07-29T21:36:35;22.60;38.30
4368;DHT22;43455;49.740;10.154;2022-07-29T21:39:00;22.50;38.40
4368;DHT22;43455;49.740;10.154;2022-07-29T21:41:31;22.40;38.20
4368;DHT22;43455;49.740;10.154;2022-07-29T21:43:57;22.40;38.50
4368;DHT22;43455;49.740;10.154;2022-07-29T21:46:23;22.40;38.40
4368;DHT22;43455;49.740;10.154;2022-07-29T21:48:52;22.40;38.50
4368;DHT22;43455;49.740;10.154;2022-07-29T21:51:17;22.40;38.20
4368;DHT22;43455;49.740;10.154;2022-07-29T21:53:43;22.40;38.40
4368;DHT22;43455;49.740;10.154;2022-07-29T21:56:09;22.50;38.30
4368;DHT22;43455;49.740;10.154;2022-07-29T21:58:34;22.40;38.30
4368;DHT22;43455;49.740;10.154;2022-07-29T22:01:01;22.30;38.30
4368;DHT22;43455;49.740;10.154;2022-07-29T22:03:26;22.30;38.80
4368;DHT22;43455;49.740;10.154;2022-07-29T22:05:52;22.30;39.00
4368;DHT22;43455;49.740;10.154;2022-07-29T22:08:18;22.20;39.00
4368;DHT22;43455;49.740;10.154;2022-07-29T22:10:44;22.20;38.90
4368;DHT22;43455;49.740;10.154;2022-07-29T22:13:09;22.20;39.00
4368;DHT22;43455;49.740;10.154;2022-07-29T22:15:35;22.10;39.10
4368;DHT22;43455;49.740;10.154;2022-07-29T22:18:01;22.10;39.00
4368;DHT22;43455;49.740;10.154;2022-07-29T22:20:28;22.10;38.90
4368;DHT22;43455;49.740;10.154;2022-07-29T22:22:54;22.10;39.10
4368;DHT22;43455;49.740;10.154;2022-07-29T22:25:20;22.00;39.90
4368;DHT22;43455;49.740;10.154;2022-07-29T22:27:46;21.90;39.90
4368;DHT22;43455;49.740;10.154;2022-07-29T22:30:12;21.70;40.20
4368;DHT22;43455;49.740;10.154;2022-07-29T22:32:38;21.80;40.30
4368;DHT22;43455;49.740;10.154;2022-07-29T22:35:04;21.70;40.80
4368;DHT22;43455;49.740;10.154;2022-07-29T22:37:30;21.60;40.80
4368;DHT22;43455;49.740;10.154;2022-07-29T22:39:56;21.50;41.40
4368;DHT22;43455;49.740;10.154;2022-07-29T22:42:21;21.60;41.20
4368;DHT22;43455;49.740;10.154;2022-07-29T22:44:47;21.60;40.50
4368;DHT22;43455;49.740;10.154;2022-07-29T22:47:13;21.70;40.30
4368;DHT22;43455;49.740;10.154;2022-07-29T22:49:39;21.60;40.70
4368;DHT22;43455;49.740;10.154;2022-07-29T22:52:07;21.70;40.90
4368;DHT22;43455;49.740;10.154;2022-07-29T22:57:00;21.50;40.60
4368;DHT22;43455;49.740;10.154;2022-07-29T22:59:29;21.60;40.40
4368;DHT22;43455;49.740;10.154;2022-07-29T23:01:54;21.50;40.90
4368;DHT22;43455;49.740;10.154;2022-07-29T23:04:20;21.50;40.90
4368;DHT22;43455;49.740;10.154;2022-07-29T23:06:48;21.50;40.90
4368;DHT22;43455;49.740;10.154;2022-07-29T23:09:15;21.60;40.60
4368;DHT22;43455;49.740;10.154;2022-07-29T23:11:40;21.50;40.40
4368;DHT22;43455;49.740;10.154;2022-07-29T23:14:06;21.50;40.00
4368;DHT22;43455;49.740;10.154;2022-07-29T23:16:32;21.50;40.10
4368;DHT22;43455;49.740;10.154;2022-07-29T23:18:57;21.40;40.60
4368;DHT22;43455;49.740;10.154;2022-07-29T23:21:23;21.40;41.30
4368;DHT22;43455;49.740;10.154;2022-07-29T23:23:49;21.30;41.60
4368;DHT22;43455;49.740;10.154;2022-07-29T23:26:14;21.20;41.80
4368;DHT22;43455;49.740;10.154;2022-07-29T23:28:41;21.20;41.70
4368;DHT22;43455;49.740;10.154;2022-07-29T23:31:08;21.10;43.20
4368;DHT22;43455;49.740;10.154;2022-07-29T23:33:33;21.00;43.00
4368;DHT22;43455;49.740;10.154;2022-07-29T23:35:59;21.10;42.00
4368;DHT22;43455;49.740;10.154;2022-07-29T23:38:24;21.20;41.60
4368;DHT22;43455;49.740;10.154;2022-07-29T23:40:50;21.10;41.80
4368;DHT22;43455;49.740;10.154;2022-07-29T23:43:16;21.20;41.50
4368;DHT22;43455;49.740;10.154;2022-07-29T23:45:42;21.10;41.30
4368;DHT22;43455;49.740;10.154;2022-07-29T23:48:07;21.10;41.20
4368;DHT22;43455;49.740;10.154;2022-07-29T23:50:33;21.10;40.90
4368;DHT22;43455;49.740;10.154;2022-07-29T23:52:59;21.20;40.40
4368;DHT22;43455;49.740;10.154;2022-07-29T23:55:24;21.20;40.30
4368;DHT22;43455;49.740;10.154;2022-07-29T23:57:50;21.20;40.30
